createdAt,value
2022-10-19T00:01:23.848Z,15.70
2022-10-19T00:03:57.088Z,17.80
2022-10-19T00:06:34.928Z,16.50
2022-10-19T00:09:13.816Z,15.50
2022-10-19T00:11:45.180Z,16.00
2022-10-19T00:22:50.253Z,15.10
2022-10-19T00:25:16.707Z,16.40
2022-10-19T00:27:43.215Z,16.00
2022-10-19T00:30:09.856Z,17.70
2022-10-19T00:32:36.398Z,16.40
2022-10-19T00:35:03.347Z,16.60
2022-10-19T00:37:29.671Z,16.30
2022-10-19T00:39:56.106Z,16.30
2022-10-19T00:42:22.498Z,15.80
2022-10-19T00:44:48.865Z,15.50
2022-10-19T00:47:16.045Z,16.50
2022-10-19T00:49:44.429Z,16.90
2022-10-19T00:52:16.017Z,15.80
2022-10-19T00:54:44.062Z,16.80
2022-10-19T00:57:11.276Z,15.80
2022-10-19T00:59:38.937Z,15.90
2022-10-19T01:08:25.943Z,15.80
2022-10-19T01:11:04.926Z,14.30
2022-10-19T01:13:50.126Z,14.10
2022-10-19T01:16:40.690Z,15.00
2022-10-19T01:19:45.908Z,13.40
2022-10-19T01:22:33.971Z,15.20
2022-10-19T01:25:15.558Z,14.10
2022-10-19T01:28:18.376Z,14.00
2022-10-19T01:30:51.361Z,13.10
2022-10-19T01:33:37.733Z,14.00
2022-10-19T01:36:19.205Z,12.80
2022-10-19T01:39:09.881Z,11.50
2022-10-19T01:42:13.673Z,11.40
2022-10-19T01:44:51.792Z,11.70
2022-10-19T01:47:26.464Z,11.70
2022-10-19T01:50:02.380Z,12.40
2022-10-19T01:52:31.581Z,12.00
2022-10-19T01:55:02.171Z,11.40
2022-10-19T01:57:45.608Z,10.90
2022-10-19T02:00:16.211Z,11.10
2022-10-19T02:02:48.753Z,10.20
2022-10-19T02:05:19.759Z,11.30
2022-10-19T02:07:52.809Z,10.70
2022-10-19T02:10:20.949Z,11.20
2022-10-19T02:12:49.220Z,10.00
2022-10-19T02:15:20.133Z,10.10
2022-10-19T02:17:52.325Z,10.40
2022-10-19T02:20:20.390Z,9.50
2022-10-19T02:22:48.210Z,10.00
2022-10-19T02:25:16.222Z,10.50
2022-10-19T02:27:44.140Z,9.00
2022-10-19T02:30:15.006Z,10.00
2022-10-19T02:32:43.576Z,9.90
2022-10-19T02:35:12.800Z,9.40
2022-10-19T02:37:40.961Z,9.20
2022-10-19T02:40:09.898Z,8.70
2022-10-19T02:42:52.669Z,9.30
2022-10-19T02:45:28.626Z,8.50
2022-10-19T02:48:12.081Z,9.90
2022-10-19T02:53:11.912Z,9.60
2022-10-19T02:58:09.298Z,9.90
2022-10-19T03:00:37.213Z,9.00
2022-10-19T03:03:05.020Z,7.80
2022-10-19T03:05:32.975Z,7.70
2022-10-19T03:08:00.701Z,8.40
2022-10-19T03:10:28.844Z,7.70
2022-10-19T03:12:59.734Z,8.00
2022-10-19T03:15:29.782Z,6.60
2022-10-19T03:17:57.628Z,6.10
2022-10-19T03:20:25.548Z,6.50
2022-10-19T03:27:53.849Z,6.20
2022-10-19T03:30:21.593Z,5.40
2022-10-19T03:32:49.325Z,6.00
2022-10-19T03:35:19.444Z,5.30
2022-10-19T03:37:49.714Z,5.40
2022-10-19T03:40:17.883Z,5.30
2022-10-19T03:42:45.622Z,5.80
2022-10-19T03:45:13.477Z,5.40
2022-10-19T03:47:41.223Z,5.20
2022-10-19T03:50:11.461Z,5.10
2022-10-19T03:52:39.248Z,4.50
2022-10-19T03:55:08.163Z,4.80
2022-10-19T03:57:36.972Z,4.50
2022-10-19T04:00:06.112Z,4.70
2022-10-19T04:02:33.956Z,4.70
2022-10-19T04:05:01.866Z,4.70
2022-10-19T04:07:29.629Z,4.30
2022-10-19T04:09:57.897Z,4.60
2022-10-19T04:12:25.649Z,4.10
2022-10-19T04:14:57.454Z,4.60
2022-10-19T04:17:26.196Z,5.10
2022-10-19T04:19:54.062Z,4.10
2022-10-19T04:22:21.827Z,4.10
2022-10-19T04:24:49.592Z,4.10
2022-10-19T04:27:17.651Z,3.80
2022-10-19T04:29:45.425Z,3.90
2022-10-19T04:32:14.257Z,4.40
2022-10-19T04:34:42.218Z,4.10
2022-10-19T04:37:09.943Z,3.70
2022-10-19T04:39:40.891Z,3.70
2022-10-19T04:42:08.619Z,4.60
2022-10-19T04:44:36.377Z,4.00
2022-10-19T04:47:04.212Z,3.50
2022-10-19T04:49:31.973Z,3.80
2022-10-19T04:51:59.711Z,3.40
2022-10-19T04:54:27.463Z,3.40
2022-10-19T04:56:55.342Z,3.40
2022-10-19T04:59:23.178Z,4.60
2022-10-19T05:01:51.156Z,3.50
2022-10-19T05:04:18.964Z,3.60
2022-10-19T05:06:46.824Z,3.40
2022-10-19T05:09:14.759Z,4.30
2022-10-19T05:11:42.575Z,3.90
2022-10-19T05:14:10.401Z,3.20
2022-10-19T05:16:38.201Z,3.10
2022-10-19T05:19:05.941Z,3.20
2022-10-19T05:21:33.772Z,3.10
2022-10-19T05:24:01.677Z,3.20
2022-10-19T05:26:30.339Z,3.30
2022-10-19T05:29:02.749Z,3.10
2022-10-19T05:31:33.166Z,3.10
2022-10-19T05:34:01.321Z,3.20
2022-10-19T05:36:34.915Z,3.20
2022-10-19T05:39:08.152Z,3.00
2022-10-19T05:41:36.586Z,3.20
2022-10-19T05:44:05.764Z,3.00
2022-10-19T05:46:34.696Z,2.80
2022-10-19T05:49:02.869Z,2.50
2022-10-19T05:51:30.800Z,2.90
2022-10-19T05:53:58.968Z,2.90
2022-10-19T05:56:29.953Z,2.90
2022-10-19T05:59:00.793Z,2.60
2022-10-19T06:01:29.653Z,2.60
2022-10-19T06:03:59.154Z,2.80
2022-10-19T06:06:27.750Z,2.80
2022-10-19T06:08:57.009Z,3.40
2022-10-19T06:11:35.197Z,2.80
2022-10-19T06:14:07.663Z,2.30
2022-10-19T06:16:36.282Z,2.70
2022-10-19T06:19:05.447Z,3.00
2022-10-19T06:21:34.568Z,2.60
2022-10-19T06:24:05.805Z,2.80
2022-10-19T06:26:35.300Z,2.60
2022-10-19T06:29:04.484Z,2.60
2022-10-19T06:31:34.981Z,2.90
2022-10-19T06:34:03.313Z,3.00
2022-10-19T06:36:32.312Z,3.00
2022-10-19T06:39:01.935Z,2.70
2022-10-19T06:41:31.457Z,2.90
2022-10-19T06:43:59.196Z,2.40
2022-10-19T06:46:27.580Z,2.30
2022-10-19T06:49:01.170Z,3.20
2022-10-19T06:51:32.243Z,5.50
2022-10-19T06:54:00.078Z,2.20
2022-10-19T06:56:28.162Z,2.10
2022-10-19T06:58:59.207Z,2.10
2022-10-19T07:01:27.239Z,2.30
2022-10-19T07:03:55.384Z,2.50
2022-10-19T07:06:27.316Z,2.50
2022-10-19T07:08:55.043Z,2.20
2022-10-19T07:11:23.390Z,2.40
2022-10-19T07:13:53.781Z,2.10
2022-10-19T07:16:22.090Z,2.00
2022-10-19T07:18:52.575Z,2.10
2022-10-19T07:21:23.205Z,2.30
2022-10-19T07:23:51.271Z,2.30
2022-10-19T07:26:27.017Z,2.30
2022-10-19T07:28:57.731Z,2.50
2022-10-19T07:31:30.464Z,2.30
2022-10-19T07:34:01.838Z,2.50
2022-10-19T07:36:33.444Z,2.50
2022-10-19T07:39:12.675Z,2.30
2022-10-19T07:41:40.787Z,2.60
2022-10-19T07:44:09.987Z,3.30
2022-10-19T07:46:40.128Z,2.30
2022-10-19T07:49:13.497Z,2.50
2022-10-19T07:51:41.385Z,2.60
2022-10-19T07:54:09.320Z,2.50
2022-10-19T07:56:37.424Z,2.40
2022-10-19T07:59:07.740Z,2.80
2022-10-19T08:01:41.744Z,2.90
2022-10-19T08:06:57.546Z,2.50
2022-10-19T08:09:51.637Z,2.70
2022-10-19T08:12:15.457Z,2.30
2022-10-19T08:14:44.453Z,2.50
2022-10-19T08:17:16.823Z,2.10
2022-10-19T08:19:51.136Z,2.30
2022-10-19T08:22:19.204Z,2.80
2022-10-19T08:24:47.088Z,2.50
2022-10-19T08:27:15.006Z,2.40
2022-10-19T08:29:43.087Z,2.30
2022-10-19T08:32:11.068Z,2.60
2022-10-19T08:34:41.467Z,2.10
2022-10-19T08:37:19.863Z,2.30
2022-10-19T08:39:55.374Z,2.30
2022-10-19T08:42:51.530Z,2.00
2022-10-19T08:45:49.277Z,2.40
2022-10-19T08:48:36.043Z,2.10
2022-10-19T08:51:05.799Z,2.00
2022-10-19T08:53:45.797Z,2.00
2022-10-19T08:56:56.515Z,1.90
2022-10-19T08:59:37.694Z,1.90
2022-10-19T09:02:25.680Z,2.20
2022-10-19T09:05:04.102Z,2.10
2022-10-19T09:07:45.080Z,2.20
2022-10-19T09:10:16.922Z,2.40
2022-10-19T09:13:07.734Z,2.80
2022-10-19T09:15:45.644Z,2.10
2022-10-19T09:18:28.937Z,2.00
2022-10-19T09:21:03.597Z,2.60
2022-10-19T09:23:51.437Z,2.10
2022-10-19T09:26:22.574Z,2.30
2022-10-19T09:29:03.915Z,2.30
2022-10-19T09:31:42.882Z,2.20
2022-10-19T09:34:24.466Z,2.20
2022-10-19T09:36:57.992Z,2.10
2022-10-19T09:39:29.641Z,2.10
2022-10-19T09:42:11.042Z,1.70
2022-10-19T09:44:38.891Z,1.70
2022-10-19T09:47:35.854Z,2.10
2022-10-19T09:50:21.889Z,2.00
2022-10-19T09:52:56.204Z,1.90
2022-10-19T09:55:38.632Z,2.20
2022-10-19T09:58:15.612Z,2.40
2022-10-19T10:00:46.661Z,1.90
2022-10-19T10:03:39.803Z,2.00
2022-10-19T10:06:19.177Z,2.20
2022-10-19T10:08:59.130Z,1.80
2022-10-19T10:11:38.462Z,1.90
2022-10-19T10:14:35.590Z,1.50
2022-10-19T10:17:30.443Z,1.70
2022-10-19T10:19:58.251Z,1.60
2022-10-19T10:22:37.883Z,1.80
2022-10-19T10:25:20.480Z,1.70
2022-10-19T10:28:04.741Z,1.80
2022-10-19T10:30:36.944Z,2.30
2022-10-19T10:33:21.132Z,2.20
2022-10-19T10:35:57.933Z,1.80
2022-10-19T10:38:36.197Z,1.70
2022-10-19T10:41:09.797Z,1.70
2022-10-19T10:43:53.293Z,1.80
2022-10-19T10:46:26.547Z,1.80
2022-10-19T10:49:04.737Z,1.90
2022-10-19T10:51:43.754Z,1.80
2022-10-19T10:54:31.861Z,1.60
2022-10-19T10:57:18.568Z,1.80
2022-10-19T10:59:55.773Z,1.30
2022-10-19T11:02:58.191Z,1.60
2022-10-19T11:05:32.780Z,1.40
2022-10-19T11:08:15.016Z,1.40
2022-10-19T11:11:14.275Z,2.10
2022-10-19T11:13:56.016Z,2.20
2022-10-19T11:16:35.852Z,1.40
2022-10-19T11:19:24.488Z,1.60
2022-10-19T11:22:07.162Z,1.40
2022-10-19T11:24:58.187Z,1.90
2022-10-19T11:27:59.529Z,1.30
2022-10-19T11:30:28.212Z,1.00
2022-10-19T11:33:05.074Z,0.90
2022-10-19T11:35:56.240Z,0.70
2022-10-19T11:38:35.547Z,0.90
2022-10-19T11:41:26.720Z,0.80
2022-10-19T11:44:38.475Z,0.80
2022-10-19T11:47:53.959Z,1.00
2022-10-19T11:50:31.961Z,1.00
2022-10-19T11:53:26.750Z,1.00
2022-10-19T11:55:58.409Z,0.90
2022-10-19T11:59:00.136Z,0.80
2022-10-19T12:02:15.687Z,0.90
2022-10-19T12:04:57.624Z,0.90
2022-10-19T12:08:00.121Z,0.90
2022-10-19T12:11:16.818Z,0.80
2022-10-19T12:13:55.957Z,0.90
2022-10-19T12:16:45.881Z,0.90
2022-10-19T12:19:23.198Z,0.80
2022-10-19T12:21:54.428Z,0.60
2022-10-19T12:24:25.133Z,0.60
2022-10-19T12:26:54.820Z,0.90
2022-10-19T12:29:36.247Z,0.70
2022-10-19T12:32:05.405Z,0.70
2022-10-19T12:35:05.634Z,0.70
2022-10-19T12:38:14.133Z,0.70
2022-10-19T12:41:07.922Z,1.10
2022-10-19T12:47:01.358Z,1.30
2022-10-19T12:49:35.625Z,1.10
2022-10-19T12:52:08.035Z,1.30
2022-10-19T12:54:38.971Z,1.40
2022-10-19T12:57:40.935Z,1.30
2022-10-19T13:00:41.591Z,1.40
2022-10-19T13:03:26.365Z,1.50
2022-10-19T13:06:18.618Z,1.40
2022-10-19T13:08:54.603Z,1.00
2022-10-19T13:11:23.480Z,1.40
2022-10-19T13:14:18.673Z,1.20
2022-10-19T13:17:04.857Z,1.00
2022-10-19T13:19:32.979Z,0.90
2022-10-19T13:22:01.569Z,0.80
2022-10-19T13:24:36.940Z,1.00
2022-10-19T13:27:04.888Z,1.20
2022-10-19T13:29:39.164Z,1.60
2022-10-19T13:32:33.498Z,1.80
2022-10-19T13:35:32.768Z,0.90
2022-10-19T13:38:10.532Z,1.00
2022-10-19T13:40:56.916Z,1.10
2022-10-19T13:43:32.041Z,0.90
2022-10-19T13:46:20.808Z,0.90
2022-10-19T13:49:49.182Z,1.00
2022-10-19T13:52:29.950Z,0.90
2022-10-19T13:55:28.632Z,1.10
2022-10-19T13:58:26.474Z,0.80
2022-10-19T14:01:39.297Z,1.00
2022-10-19T14:04:36.819Z,0.90
2022-10-19T14:07:14.147Z,1.10
2022-10-19T14:10:08.665Z,1.20
2022-10-19T14:12:41.200Z,1.10
2022-10-19T14:18:06.168Z,1.20
2022-10-19T14:20:38.778Z,1.30
2022-10-19T14:23:30.744Z,0.90
2022-10-19T14:26:20.779Z,0.90
2022-10-19T14:28:57.371Z,1.10
2022-10-19T14:31:36.543Z,1.10
2022-10-19T14:34:08.153Z,2.30
2022-10-19T14:36:45.161Z,1.10
2022-10-19T14:39:26.415Z,1.10
2022-10-19T14:41:55.883Z,1.80
2022-10-19T14:44:40.545Z,1.50
2022-10-19T14:47:24.199Z,1.50
2022-10-19T14:49:52.350Z,1.10
2022-10-19T14:52:31.736Z,1.00
2022-10-19T14:55:01.104Z,1.20
2022-10-19T14:57:33.742Z,1.60
2022-10-19T15:00:06.572Z,1.40
2022-10-19T15:02:48.399Z,2.00
2022-10-19T15:05:24.199Z,3.00
2022-10-19T15:07:52.515Z,2.50
2022-10-19T15:10:31.245Z,2.20
2022-10-19T15:13:04.515Z,1.70
2022-10-19T15:15:35.638Z,1.60
2022-10-19T15:18:06.943Z,1.70
2022-10-19T15:20:49.521Z,2.30
2022-10-19T15:23:52.343Z,4.10
2022-10-19T15:26:26.140Z,5.70
2022-10-19T15:28:57.327Z,6.90
2022-10-19T15:31:29.322Z,6.80
2022-10-19T15:34:02.751Z,5.40
2022-10-19T15:36:32.913Z,4.00
2022-10-19T15:39:18.270Z,3.10
2022-10-19T15:41:53.297Z,3.30
2022-10-19T15:44:34.116Z,2.90
2022-10-19T15:47:21.775Z,5.10
2022-10-19T15:50:02.796Z,5.30
2022-10-19T15:52:33.848Z,8.10
2022-10-19T15:55:02.371Z,7.20
2022-10-19T15:57:32.346Z,9.60
2022-10-19T16:00:21.594Z,8.30
2022-10-19T16:02:49.542Z,7.30
2022-10-19T16:05:17.614Z,7.40
2022-10-19T16:07:45.973Z,9.40
2022-10-19T16:10:19.890Z,9.80
2022-10-19T16:12:50.519Z,12.70
2022-10-19T16:15:22.937Z,10.80
2022-10-19T16:20:31.379Z,8.00
2022-10-19T16:23:04.161Z,6.80
2022-10-19T16:26:46.943Z,9.30
2022-10-19T16:29:15.056Z,8.30
2022-10-19T16:31:43.354Z,6.60
2022-10-19T16:34:14.693Z,7.10
2022-10-19T16:36:42.983Z,8.00
2022-10-19T16:39:11.032Z,8.90
2022-10-19T16:41:39.360Z,9.00
2022-10-19T16:44:20.167Z,8.30
2022-10-19T16:46:48.700Z,6.70
2022-10-19T16:49:16.744Z,7.00
2022-10-19T16:51:44.762Z,6.40
2022-10-19T16:54:12.622Z,7.30
2022-10-19T16:56:48.162Z,7.10
2022-10-19T16:59:18.432Z,9.00
2022-10-19T17:01:47.114Z,8.60
2022-10-19T17:04:17.580Z,8.70
2022-10-19T17:06:45.578Z,5.50
2022-10-19T17:09:37.025Z,4.40
2022-10-19T17:12:01.683Z,6.80
2022-10-19T17:14:29.507Z,8.50
2022-10-19T17:16:57.420Z,8.70
2022-10-19T17:19:25.775Z,7.50
2022-10-19T17:21:59.277Z,6.20
2022-10-19T17:24:47.295Z,6.70
2022-10-19T17:27:21.623Z,8.80
2022-10-19T17:29:53.217Z,10.30
2022-10-19T17:32:23.525Z,10.90
2022-10-19T17:34:54.806Z,10.40
2022-10-19T17:37:25.535Z,11.20
2022-10-19T17:39:53.484Z,9.80
2022-10-19T17:42:21.388Z,8.80
2022-10-19T17:44:54.220Z,7.50
2022-10-19T17:47:22.356Z,7.70
2022-10-19T17:49:50.549Z,9.80
2022-10-19T17:52:21.832Z,11.10
2022-10-19T17:55:11.254Z,10.30
2022-10-19T17:57:38.091Z,6.70
2022-10-19T18:00:07.558Z,5.10
2022-10-19T18:02:36.035Z,5.50
2022-10-19T18:05:04.794Z,5.80
2022-10-19T18:07:32.882Z,7.60
2022-10-19T18:10:02.598Z,8.50
2022-10-19T18:12:30.831Z,9.80
2022-10-19T18:15:01.380Z,10.00
2022-10-19T18:17:29.762Z,10.30
2022-10-19T18:20:00.270Z,9.90
2022-10-19T18:22:28.889Z,9.70
2022-10-19T18:24:59.242Z,8.10
2022-10-19T18:27:28.839Z,8.40
2022-10-19T18:29:57.012Z,8.70
2022-10-19T18:32:26.635Z,11.60
2022-10-19T18:34:55.146Z,14.00
2022-10-19T18:37:24.257Z,21.40
2022-10-19T18:39:52.317Z,21.80
2022-10-19T18:42:20.445Z,20.50
2022-10-19T18:44:48.469Z,18.50
2022-10-19T18:47:24.331Z,15.20
2022-10-19T18:49:54.842Z,13.20
2022-10-19T18:52:43.933Z,12.30
2022-10-19T18:55:12.552Z,11.40
2022-10-19T18:57:40.735Z,11.70
2022-10-19T19:00:10.779Z,12.10
2022-10-19T19:02:46.945Z,11.90
2022-10-19T19:05:26.755Z,10.90
2022-10-19T19:08:05.996Z,10.50
2022-10-19T19:10:40.291Z,9.60
2022-10-19T19:15:51.585Z,10.90
2022-10-19T19:18:32.153Z,10.50
2022-10-19T19:21:06.635Z,9.90
2022-10-19T19:23:34.713Z,11.40
2022-10-19T19:26:07.813Z,9.90
2022-10-19T19:28:43.505Z,10.00
2022-10-19T19:31:21.394Z,9.70
2022-10-19T19:34:00.713Z,10.60
2022-10-19T19:36:33.431Z,10.80
2022-10-19T19:39:02.792Z,10.30
2022-10-19T19:41:44.615Z,12.40
2022-10-19T19:44:18.892Z,11.20
2022-10-19T19:46:49.513Z,11.50
2022-10-19T19:49:29.795Z,11.50
2022-10-19T19:52:09.520Z,11.60
2022-10-19T19:54:45.506Z,12.10
2022-10-19T19:57:26.670Z,13.30
2022-10-19T20:00:05.270Z,13.90
2022-10-19T20:02:39.747Z,11.70
2022-10-19T20:05:09.020Z,12.60
2022-10-19T20:07:43.342Z,17.50
2022-10-19T20:10:29.187Z,46.30
2022-10-19T20:13:08.465Z,45.60
2022-10-19T20:15:43.172Z,37.60
2022-10-19T20:18:16.405Z,34.60
2022-10-19T20:20:47.794Z,27.20
2022-10-19T20:23:16.389Z,39.50
2022-10-19T20:25:44.828Z,59.80
2022-10-19T20:28:13.063Z,60.50
2022-10-19T20:30:44.550Z,62.10
2022-10-19T20:33:12.891Z,63.70
2022-10-19T20:35:41.458Z,67.20
2022-10-19T20:38:12.933Z,72.90
2022-10-19T20:40:41.030Z,65.30
2022-10-19T20:43:09.143Z,52.60
2022-10-19T20:45:42.229Z,49.20
2022-10-19T20:48:10.259Z,40.90
2022-10-19T20:50:43.658Z,33.90
2022-10-19T20:53:19.184Z,40.70
2022-10-19T20:55:47.356Z,32.40
2022-10-19T20:58:17.104Z,26.00
2022-10-19T21:00:49.572Z,35.10
2022-10-19T21:03:19.830Z,38.20
2022-10-19T21:05:48.164Z,37.60
2022-10-19T21:08:20.150Z,26.10
2022-10-19T21:10:54.752Z,31.80
2022-10-19T21:13:23.714Z,63.40
2022-10-19T21:15:54.132Z,28.70
2022-10-19T21:18:21.950Z,26.20
2022-10-19T21:20:49.870Z,14.60
2022-10-19T21:23:17.902Z,20.40
2022-10-19T21:25:55.519Z,15.10
2022-10-19T21:28:23.928Z,17.70
2022-10-19T21:30:51.899Z,17.60
2022-10-19T21:33:20.077Z,53.90
2022-10-19T21:35:48.427Z,25.30
2022-10-19T21:38:16.436Z,19.00
2022-10-19T21:40:44.430Z,24.60
2022-10-19T21:43:14.541Z,19.50
2022-10-19T21:45:42.327Z,20.80
2022-10-19T21:48:10.981Z,17.00
2022-10-19T21:50:38.855Z,16.00
2022-10-19T21:53:06.730Z,13.00
2022-10-19T21:55:35.220Z,15.10
2022-10-19T21:58:05.064Z,14.10
2022-10-19T22:00:33.178Z,13.50
2022-10-19T22:03:01.590Z,14.60
2022-10-19T22:05:31.989Z,14.60
2022-10-19T22:08:00.755Z,15.00
2022-10-19T22:10:29.065Z,15.00
2022-10-19T22:12:57.602Z,12.50
2022-10-19T22:15:25.559Z,12.30
2022-10-19T22:17:53.682Z,13.50
2022-10-19T22:20:22.026Z,11.00
2022-10-19T22:22:52.795Z,23.00
2022-10-19T22:27:55.580Z,30.40
2022-10-19T22:30:23.972Z,18.90
2022-10-19T22:32:52.006Z,16.90
2022-10-19T22:35:19.798Z,16.30
2022-10-19T22:37:50.259Z,17.40
2022-10-19T22:40:18.571Z,12.80
2022-10-19T22:42:49.248Z,11.70
2022-10-19T22:45:20.082Z,10.20
2022-10-19T22:47:48.055Z,10.30
2022-10-19T22:50:16.457Z,10.50
2022-10-19T22:52:46.532Z,10.60
2022-10-19T22:55:17.205Z,10.10
2022-10-19T22:57:45.249Z,9.00
2022-10-19T23:00:21.577Z,12.60
2022-10-19T23:02:51.818Z,12.90
2022-10-19T23:05:19.822Z,12.60
2022-10-19T23:07:50.159Z,9.60
2022-10-19T23:10:18.521Z,11.00
2022-10-19T23:12:53.813Z,9.50
2022-10-19T23:15:22.199Z,10.00
2022-10-19T23:17:50.284Z,9.40
2022-10-19T23:20:18.183Z,11.90
2022-10-19T23:22:46.152Z,12.40
2022-10-19T23:25:14.075Z,13.60
2022-10-19T23:27:41.969Z,12.90
2022-10-19T23:30:10.319Z,11.90
2022-10-19T23:32:38.257Z,10.10
2022-10-19T23:35:07.852Z,10.90
2022-10-19T23:37:36.293Z,10.30
2022-10-19T23:40:06.392Z,11.10
2022-10-19T23:42:36.654Z,11.90
2022-10-19T23:45:05.205Z,12.50
2022-10-19T23:47:33.305Z,10.70
2022-10-19T23:50:01.903Z,10.80
2022-10-19T23:52:29.737Z,10.20
2022-10-19T23:54:57.593Z,11.30
2022-10-19T23:57:25.384Z,11.70
2022-10-19T23:59:53.180Z,14.60
